createdAt,value
2022-08-27T00:01:49.241Z,101402.94
2022-08-27T00:04:17.144Z,101401.19
2022-08-27T00:06:46.185Z,101400.00
2022-08-27T00:09:14.377Z,101399.41
2022-08-27T00:11:44.984Z,101407.06
2022-08-27T00:14:12.909Z,101403.41
2022-08-27T00:16:42.719Z,101407.03
2022-08-27T00:19:11.486Z,101409.38
2022-08-27T00:21:39.657Z,101406.47
2022-08-27T00:24:07.412Z,101408.91
2022-08-27T00:26:35.700Z,101420.78
2022-08-27T00:29:05.081Z,101399.06
2022-08-27T00:31:32.845Z,101404.22
2022-08-27T00:34:02.337Z,101409.16
2022-08-27T00:36:29.964Z,101407.16
2022-08-27T00:38:57.624Z,101403.16
2022-08-27T00:41:25.425Z,101397.38
2022-08-27T00:43:57.163Z,101398.69
2022-08-27T00:46:29.041Z,101411.63
2022-08-27T00:48:59.397Z,101406.66
2022-08-27T00:51:29.406Z,101406.22
2022-08-27T00:53:59.793Z,101414.06
2022-08-27T00:56:30.340Z,101415.00
2022-08-27T00:58:58.120Z,101406.06
2022-08-27T01:01:28.153Z,101404.41
2022-08-27T01:03:59.537Z,101412.72
2022-08-27T01:06:33.133Z,101414.38
2022-08-27T01:09:06.085Z,101413.81
2022-08-27T01:11:33.935Z,101424.25
2022-08-27T01:14:01.694Z,101421.41
2022-08-27T01:16:35.645Z,101419.19
2022-08-27T01:19:08.197Z,101423.97
2022-08-27T01:21:43.912Z,101426.44
2022-08-27T01:24:24.996Z,101427.13
2022-08-27T01:26:53.296Z,101429.69
2022-08-27T01:29:21.001Z,101423.81
2022-08-27T01:31:48.599Z,101429.78
2022-08-27T01:34:16.650Z,101425.94
2022-08-27T01:36:44.216Z,101429.22
2022-08-27T01:39:11.761Z,101420.53
2022-08-27T01:41:42.232Z,101426.13
2022-08-27T01:44:09.768Z,101431.16
2022-08-27T01:46:37.394Z,101425.56
2022-08-27T01:49:04.996Z,101432.94
2022-08-27T01:51:32.544Z,101437.41
2022-08-27T01:54:00.131Z,101441.28
2022-08-27T01:56:27.830Z,101438.47
2022-08-27T01:58:56.733Z,101428.22
2022-08-27T02:01:24.592Z,101419.66
2022-08-27T02:03:52.150Z,101427.59
2022-08-27T02:06:19.745Z,101414.09
2022-08-27T02:08:47.370Z,101411.09
2022-08-27T02:11:14.941Z,101413.56
2022-08-27T02:13:42.608Z,101408.78
2022-08-27T02:16:11.631Z,101407.50
2022-08-27T02:18:41.788Z,101426.22
2022-08-27T02:21:10.477Z,101421.44
2022-08-27T02:23:39.585Z,101416.97
2022-08-27T02:26:07.456Z,101419.97
2022-08-27T02:28:35.484Z,101417.97
2022-08-27T02:31:03.337Z,101409.72
2022-08-27T02:33:32.868Z,101413.09
2022-08-27T02:36:00.613Z,101410.66
2022-08-27T02:38:28.257Z,101408.16
2022-08-27T02:40:55.881Z,101400.75
2022-08-27T02:43:25.331Z,101401.88
2022-08-27T02:45:53.343Z,101392.38
2022-08-27T02:48:21.386Z,101409.38
2022-08-27T02:50:50.785Z,101407.34
2022-08-27T02:53:19.365Z,101420.25
2022-08-27T02:55:47.044Z,101408.31
2022-08-27T02:58:16.700Z,101419.09
2022-08-27T03:00:44.697Z,101412.28
2022-08-27T03:03:12.325Z,101414.75
2022-08-27T03:05:40.471Z,101417.44
2022-08-27T03:08:09.834Z,101427.41
2022-08-27T03:10:37.481Z,101424.25
2022-08-27T03:13:05.097Z,101432.66
2022-08-27T03:15:32.673Z,101422.91
2022-08-27T03:18:17.853Z,101413.34
2022-08-27T03:20:48.057Z,101413.53
2022-08-27T03:23:18.280Z,101411.03
2022-08-27T03:25:51.121Z,101418.94
2022-08-27T03:28:23.243Z,101413.53
2022-08-27T03:30:53.517Z,101429.50
2022-08-27T03:33:22.753Z,101420.22
2022-08-27T03:35:52.040Z,101415.66
2022-08-27T03:38:23.308Z,101416.25
2022-08-27T03:40:51.293Z,101413.53
2022-08-27T03:43:21.280Z,101411.47
2022-08-27T03:46:01.569Z,101416.25
2022-08-27T03:48:30.781Z,101409.22
2022-08-27T03:50:58.700Z,101410.84
2022-08-27T03:53:28.249Z,101419.38
2022-08-27T03:55:55.825Z,101417.13
2022-08-27T03:58:23.420Z,101414.09
2022-08-27T04:00:50.977Z,101421.81
2022-08-27T04:03:18.580Z,101420.38
2022-08-27T04:05:46.128Z,101413.84
2022-08-27T04:08:13.789Z,101410.56
2022-08-27T04:10:43.275Z,101417.81
2022-08-27T04:13:11.100Z,101427.09
2022-08-27T04:15:43.804Z,101424.19
2022-08-27T04:18:11.934Z,101425.84
2022-08-27T04:20:39.897Z,101422.91
2022-08-27T04:23:07.484Z,101416.22
2022-08-27T04:25:35.026Z,101418.56
2022-08-27T04:28:04.384Z,101431.38
2022-08-27T04:30:32.898Z,101421.19
2022-08-27T04:33:00.540Z,101434.66
2022-08-27T04:35:28.072Z,101428.28
2022-08-27T04:37:55.626Z,101428.66
2022-08-27T04:40:43.152Z,101439.47
2022-08-27T04:43:13.848Z,101429.66
2022-08-27T04:45:45.751Z,101434.44
2022-08-27T04:48:14.719Z,101429.50
2022-08-27T04:50:43.192Z,101434.22
2022-08-27T04:53:11.645Z,101434.22
2022-08-27T04:55:42.586Z,101434.44
2022-08-27T04:58:11.818Z,101434.91
2022-08-27T05:00:43.313Z,101431.97
2022-08-27T05:03:10.962Z,101423.13
2022-08-27T05:05:38.729Z,101431.66
2022-08-27T05:08:13.056Z,101434.56
2022-08-27T05:10:42.371Z,101427.09
2022-08-27T05:13:10.305Z,101433.09
2022-08-27T05:15:39.817Z,101439.13
2022-08-27T05:18:09.088Z,101426.78
2022-08-27T05:20:43.641Z,101430.31
2022-08-27T05:23:11.337Z,101437.56
2022-08-27T05:25:40.264Z,101440.47
2022-08-27T05:28:07.884Z,101445.50
2022-08-27T05:30:41.165Z,101441.38
2022-08-27T05:33:10.238Z,101440.31
2022-08-27T05:35:41.395Z,101444.72
2022-08-27T05:38:09.787Z,101451.59
2022-08-27T05:40:38.210Z,101442.53
2022-08-27T05:43:06.385Z,101448.59
2022-08-27T05:45:34.320Z,101449.34
2022-08-27T05:48:03.602Z,101449.56
2022-08-27T05:50:31.207Z,101444.81
2022-08-27T05:52:59.317Z,101444.47
2022-08-27T05:55:26.913Z,101447.97
2022-08-27T05:57:54.477Z,101448.34
2022-08-27T06:00:39.723Z,101453.91
2022-08-27T06:03:09.915Z,101452.25
2022-08-27T06:05:37.572Z,101447.47
2022-08-27T06:08:05.613Z,101448.00
2022-08-27T06:10:33.410Z,101446.16
2022-08-27T06:13:00.961Z,101446.53
2022-08-27T06:15:29.363Z,101456.47
2022-08-27T06:17:57.057Z,101452.91
2022-08-27T06:20:26.125Z,101458.69
2022-08-27T06:22:55.601Z,101455.69
2022-08-27T06:25:23.180Z,101452.34
2022-08-27T06:27:50.741Z,101455.19
2022-08-27T06:30:18.433Z,101459.31
2022-08-27T06:32:46.445Z,101456.59
2022-08-27T06:35:14.004Z,101458.25
2022-08-27T06:37:42.880Z,101448.69
2022-08-27T06:40:11.826Z,101456.69
2022-08-27T06:42:39.399Z,101462.06
2022-08-27T06:45:08.485Z,101466.81
2022-08-27T06:47:36.037Z,101467.47
2022-08-27T06:50:04.065Z,101472.03
2022-08-27T06:52:31.723Z,101466.94
2022-08-27T06:55:00.697Z,101466.72
2022-08-27T06:57:28.449Z,101462.97
2022-08-27T06:59:56.090Z,101468.22
2022-08-27T07:02:23.946Z,101462.97
2022-08-27T07:04:54.289Z,101473.22
2022-08-27T07:07:32.570Z,101461.28
2022-08-27T07:10:08.460Z,101460.19
2022-08-27T07:12:36.053Z,101473.06
2022-08-27T07:15:05.317Z,101474.69
2022-08-27T07:17:32.889Z,101474.88
2022-08-27T07:20:01.260Z,101475.84
2022-08-27T07:22:29.747Z,101480.41
2022-08-27T07:24:57.345Z,101471.06
2022-08-27T07:27:26.253Z,101472.31
2022-08-27T07:29:53.989Z,101479.78
2022-08-27T07:32:21.553Z,101478.16
2022-08-27T07:34:57.993Z,101470.84
2022-08-27T07:37:28.578Z,101470.22
2022-08-27T07:40:04.070Z,101463.88
2022-08-27T07:42:50.361Z,101476.47
2022-08-27T07:45:18.098Z,101481.69
2022-08-27T07:47:46.338Z,101481.56
2022-08-27T07:50:14.178Z,101476.75
2022-08-27T07:52:43.780Z,101485.78
2022-08-27T07:55:11.607Z,101487.34
2022-08-27T07:57:41.958Z,101491.34
2022-08-27T08:00:11.480Z,101503.22
2022-08-27T08:02:41.944Z,101495.69
2022-08-27T08:05:10.693Z,101496.53
2022-08-27T08:07:38.650Z,101499.34
2022-08-27T08:10:07.285Z,101504.44
2022-08-27T08:12:36.229Z,101502.34
2022-08-27T08:15:07.084Z,101499.50
2022-08-27T08:17:35.180Z,101508.63
2022-08-27T08:20:19.862Z,101504.41
2022-08-27T08:22:50.685Z,101511.38
2022-08-27T08:25:18.941Z,101502.34
2022-08-27T08:27:48.047Z,101514.06
2022-08-27T08:30:17.245Z,101503.09
2022-08-27T08:32:44.815Z,101506.41
2022-08-27T08:35:12.574Z,101507.50
2022-08-27T08:37:40.198Z,101511.22
2022-08-27T08:40:09.115Z,101516.69
2022-08-27T08:42:42.164Z,101508.16
2022-08-27T08:45:19.973Z,101517.97
2022-08-27T08:47:52.180Z,101511.06
2022-08-27T08:50:26.117Z,101521.34
2022-08-27T08:53:00.036Z,101507.81
2022-08-27T08:55:41.184Z,101515.72
2022-08-27T08:58:16.174Z,101526.66
2022-08-27T09:00:47.305Z,101525.22
2022-08-27T09:03:17.269Z,101516.97
2022-08-27T09:05:49.805Z,101523.06
2022-08-27T09:08:36.549Z,101520.34
2022-08-27T09:11:13.333Z,101526.03
2022-08-27T09:13:44.198Z,101533.38
2022-08-27T09:16:13.184Z,101525.66
2022-08-27T09:18:42.110Z,101526.78
2022-08-27T09:21:27.563Z,101525.34
2022-08-27T09:24:05.946Z,101520.94
2022-08-27T09:26:38.802Z,101519.63
2022-08-27T09:29:19.847Z,101516.66
2022-08-27T09:31:54.677Z,101519.63
2022-08-27T09:34:23.357Z,101522.03
2022-08-27T09:36:57.008Z,101519.38
2022-08-27T09:39:30.197Z,101528.28
2022-08-27T09:41:58.425Z,101525.03
2022-08-27T09:44:25.992Z,101527.28
2022-08-27T09:46:58.632Z,101515.25
2022-08-27T09:49:27.383Z,101518.72
2022-08-27T09:51:56.761Z,101522.50
2022-08-27T09:54:37.784Z,101517.13
2022-08-27T09:57:06.972Z,101505.22
2022-08-27T09:59:37.586Z,101506.28
2022-08-27T10:02:15.065Z,101510.69
2022-08-27T10:04:51.415Z,101514.38
2022-08-27T10:07:31.544Z,101511.25
2022-08-27T10:10:10.669Z,101506.31
2022-08-27T10:12:48.642Z,101504.28
2022-08-27T10:15:16.859Z,101511.59
2022-08-27T10:17:58.478Z,101501.88
2022-08-27T10:20:35.482Z,101495.16
2022-08-27T10:23:13.062Z,101495.50
2022-08-27T10:25:49.180Z,101505.63
2022-08-27T10:28:29.555Z,101504.88
2022-08-27T10:31:16.167Z,101497.94
2022-08-27T10:33:57.972Z,101499.84
2022-08-27T10:36:36.528Z,101494.25
2022-08-27T10:39:12.464Z,101494.63
2022-08-27T10:41:44.279Z,101493.59
2022-08-27T10:44:26.718Z,101496.69
2022-08-27T10:47:11.401Z,101486.13
2022-08-27T10:49:50.957Z,101489.63
2022-08-27T10:52:24.798Z,101481.00
2022-08-27T10:54:57.989Z,101482.75
2022-08-27T10:57:55.157Z,101486.44
2022-08-27T11:00:26.085Z,101483.81
2022-08-27T11:02:56.051Z,101475.56
2022-08-27T11:05:28.848Z,101482.75
2022-08-27T11:08:01.321Z,101471.16
2022-08-27T11:10:30.818Z,101479.13
2022-08-27T11:13:01.373Z,101477.13
2022-08-27T11:15:33.777Z,101470.38
2022-08-27T11:18:06.596Z,101470.97
2022-08-27T11:20:42.087Z,101470.63
2022-08-27T11:23:13.273Z,101469.88
2022-08-27T11:25:51.749Z,101460.16
2022-08-27T11:28:29.687Z,101471.59
2022-08-27T11:31:05.709Z,101460.25
2022-08-27T11:33:42.821Z,101461.38
2022-08-27T11:36:41.280Z,101473.63
2022-08-27T11:39:23.554Z,101462.56
2022-08-27T11:42:01.411Z,101453.81
2022-08-27T11:44:29.725Z,101459.00
2022-08-27T11:47:09.255Z,101460.78
2022-08-27T11:49:45.380Z,101459.03
2022-08-27T11:52:24.942Z,101455.81
2022-08-27T11:54:58.545Z,101456.09
2022-08-27T11:57:32.707Z,101461.06
2022-08-27T12:00:16.971Z,101454.41
2022-08-27T12:02:46.005Z,101449.50
2022-08-27T12:05:26.713Z,101453.94
2022-08-27T12:07:55.913Z,101445.75
2022-08-27T12:10:34.089Z,101446.56
2022-08-27T12:13:17.246Z,101451.22
2022-08-27T12:15:55.519Z,101443.31
2022-08-27T12:18:53.678Z,101450.13
2022-08-27T12:21:30.329Z,101447.38
2022-08-27T12:24:32.293Z,101445.91
2022-08-27T12:27:02.602Z,101440.72
2022-08-27T12:29:41.148Z,101449.97
2022-08-27T12:32:26.213Z,101443.84
2022-08-27T12:35:02.301Z,101441.41
2022-08-27T12:37:32.295Z,101440.28
2022-08-27T12:40:06.743Z,101439.16
2022-08-27T12:42:34.485Z,101452.78
2022-08-27T12:45:02.189Z,101441.59
2022-08-27T12:47:36.701Z,101438.56
2022-08-27T12:50:04.685Z,101436.09
2022-08-27T12:52:53.604Z,101440.72
2022-08-27T12:55:36.219Z,101433.66
2022-08-27T12:58:15.509Z,101434.00
2022-08-27T13:01:19.841Z,101444.66
2022-08-27T13:03:50.302Z,101438.06
2022-08-27T13:06:19.929Z,101436.47
2022-08-27T13:08:54.599Z,101433.19
2022-08-27T13:11:25.720Z,101435.38
2022-08-27T13:14:04.660Z,101441.34
2022-08-27T13:16:32.420Z,101446.16
2022-08-27T13:19:00.246Z,101435.84
2022-08-27T13:21:29.729Z,101432.88
2022-08-27T13:23:59.644Z,101431.50
2022-08-27T13:26:31.526Z,101435.59
2022-08-27T13:29:03.331Z,101432.88
2022-08-27T13:31:32.917Z,101433.75
2022-08-27T13:34:01.978Z,101441.38
2022-08-27T13:36:31.951Z,101432.13
2022-08-27T13:39:00.358Z,101444.13
2022-08-27T13:41:33.285Z,101433.16
2022-08-27T13:44:09.273Z,101438.84
2022-08-27T13:46:47.590Z,101438.28
2022-08-27T13:49:21.853Z,101435.56
2022-08-27T13:51:50.828Z,101442.00
2022-08-27T13:54:19.575Z,101444.66
2022-08-27T13:57:08.057Z,101442.53
2022-08-27T13:59:41.954Z,101452.72
2022-08-27T14:02:24.700Z,101448.22
2022-08-27T14:05:06.793Z,101453.13
2022-08-27T14:07:36.141Z,101448.22
2022-08-27T14:10:06.780Z,101446.00
2022-08-27T14:12:39.259Z,101445.59
2022-08-27T14:15:20.701Z,101443.69
2022-08-27T14:17:48.933Z,101441.44
2022-08-27T14:20:18.269Z,101440.06
2022-08-27T14:22:47.022Z,101443.59
2022-08-27T14:25:15.090Z,101439.00
2022-08-27T14:27:54.496Z,101441.19
2022-08-27T14:30:29.697Z,101440.03
2022-08-27T14:33:00.137Z,101449.16
2022-08-27T14:35:28.653Z,101446.13
2022-08-27T14:37:56.416Z,101450.00
2022-08-27T14:40:24.176Z,101452.72
2022-08-27T14:42:53.128Z,101452.94
2022-08-27T14:45:20.779Z,101451.06
2022-08-27T14:47:48.417Z,101449.69
2022-08-27T14:50:16.253Z,101448.63
2022-08-27T14:52:43.916Z,101453.47
2022-08-27T14:55:11.778Z,101449.00
2022-08-27T14:57:39.583Z,101451.16
2022-08-27T15:00:11.065Z,101447.19
2022-08-27T15:02:43.957Z,101452.38
2022-08-27T15:05:16.344Z,101446.25
2022-08-27T15:07:47.110Z,101458.59
2022-08-27T15:10:15.795Z,101451.56
2022-08-27T15:12:44.116Z,101459.22
2022-08-27T15:15:15.273Z,101443.63
2022-08-27T15:17:43.164Z,101457.53
2022-08-27T15:20:20.006Z,101446.16
2022-08-27T15:22:51.882Z,101460.00
2022-08-27T15:25:20.291Z,101462.94
2022-08-27T15:27:47.997Z,101454.59
2022-08-27T15:30:19.190Z,101458.91
2022-08-27T15:32:49.192Z,101458.38
2022-08-27T15:35:19.477Z,101469.06
2022-08-27T15:37:47.172Z,101463.97
2022-08-27T15:40:16.942Z,101458.78
2022-08-27T15:42:45.201Z,101459.25
2022-08-27T15:45:14.852Z,101472.69
2022-08-27T15:47:43.941Z,101475.41
2022-08-27T15:50:12.205Z,101474.53
2022-08-27T15:52:40.984Z,101477.03
2022-08-27T15:55:20.786Z,101469.47
2022-08-27T15:57:48.477Z,101457.56
2022-08-27T16:00:17.677Z,101467.63
2022-08-27T16:02:47.320Z,101461.66
2022-08-27T16:05:16.731Z,101465.41
2022-08-27T16:07:44.506Z,101458.75
2022-08-27T16:10:12.775Z,101461.16
2022-08-27T16:12:40.348Z,101469.44
2022-08-27T16:15:09.528Z,101464.75
2022-08-27T16:17:37.454Z,101465.50
2022-08-27T16:20:08.642Z,101468.03
2022-08-27T16:22:36.357Z,101466.91
2022-08-27T16:25:06.380Z,101470.44
2022-08-27T16:27:34.451Z,101475.88
2022-08-27T16:30:02.172Z,101468.72
2022-08-27T16:32:32.229Z,101470.47
2022-08-27T16:35:00.462Z,101469.06
2022-08-27T16:37:29.406Z,101469.91
2022-08-27T16:39:57.147Z,101469.25
2022-08-27T16:42:24.919Z,101473.34
2022-08-27T16:44:52.757Z,101472.94
2022-08-27T16:47:20.313Z,101464.25
2022-08-27T16:50:05.481Z,101471.81
2022-08-27T16:52:36.108Z,101472.94
2022-08-27T16:55:03.767Z,101471.69
2022-08-27T16:57:31.444Z,101468.63
2022-08-27T16:59:59.004Z,101479.81
2022-08-27T17:02:31.249Z,101469.97
2022-08-27T17:05:12.207Z,101469.00
2022-08-27T17:07:49.295Z,101469.34
2022-08-27T17:10:18.230Z,101471.63
2022-08-27T17:12:47.638Z,101476.06
2022-08-27T17:15:16.785Z,101471.38
2022-08-27T17:17:45.107Z,101476.69
2022-08-27T17:20:14.878Z,101479.91
2022-08-27T17:22:42.582Z,101479.75
2022-08-27T17:25:11.894Z,101478.16
2022-08-27T17:27:39.662Z,101481.78
2022-08-27T17:30:08.865Z,101483.56
2022-08-27T17:32:39.761Z,101485.22
2022-08-27T17:35:10.541Z,101483.97
2022-08-27T17:37:38.486Z,101479.28
2022-08-27T17:40:07.037Z,101487.28
2022-08-27T17:42:35.981Z,101495.06
2022-08-27T17:45:05.349Z,101499.41
2022-08-27T17:47:32.900Z,101498.63
2022-08-27T17:50:00.456Z,101497.25
2022-08-27T17:52:28.065Z,101501.97
2022-08-27T17:54:56.662Z,101504.69
2022-08-27T17:57:26.967Z,101516.56
2022-08-27T18:00:00.462Z,101518.34
2022-08-27T18:02:35.466Z,101516.03
2022-08-27T18:05:03.323Z,101530.13
2022-08-27T18:07:31.448Z,101530.97
2022-08-27T18:09:59.449Z,101525.56
2022-08-27T18:12:28.525Z,101522.25
2022-08-27T18:15:05.433Z,101530.16
2022-08-27T18:17:33.224Z,101528.72
2022-08-27T18:20:01.161Z,101533.16
2022-08-27T18:22:28.708Z,101529.53
2022-08-27T18:25:02.917Z,101530.47
2022-08-27T18:27:33.709Z,101538.34
2022-08-27T18:30:03.584Z,101544.88
2022-08-27T18:32:31.185Z,101541.31
2022-08-27T18:35:02.091Z,101544.38
2022-08-27T18:37:30.020Z,101551.38
2022-08-27T18:39:57.642Z,101547.56
2022-08-27T18:42:25.207Z,101551.63
2022-08-27T18:44:52.806Z,101549.69
2022-08-27T18:47:21.734Z,101552.41
2022-08-27T18:49:49.429Z,101544.25
2022-08-27T18:52:23.761Z,101554.03
2022-08-27T18:54:51.504Z,101555.31
2022-08-27T18:57:19.076Z,101559.53
2022-08-27T18:59:46.962Z,101556.91
2022-08-27T19:02:19.267Z,101562.97
2022-08-27T19:04:48.733Z,101564.56
2022-08-27T19:07:16.369Z,101557.94
2022-08-27T19:09:43.924Z,101560.88
2022-08-27T19:12:12.861Z,101562.22
2022-08-27T19:14:42.837Z,101567.69
2022-08-27T19:17:22.229Z,101575.41
2022-08-27T19:19:52.617Z,101575.63
2022-08-27T19:22:20.671Z,101573.56
2022-08-27T19:24:50.028Z,101576.97
2022-08-27T19:27:24.320Z,101574.72
2022-08-27T19:29:53.138Z,101580.56
2022-08-27T19:32:21.793Z,101578.97
2022-08-27T19:34:50.696Z,101579.19
2022-08-27T19:37:22.735Z,101584.56
2022-08-27T19:39:50.774Z,101583.19
2022-08-27T19:42:18.702Z,101584.22
2022-08-27T19:44:46.304Z,101587.97
2022-08-27T19:47:16.668Z,101590.69
2022-08-27T19:49:49.689Z,101587.78
2022-08-27T19:52:18.681Z,101587.44
2022-08-27T19:55:12.210Z,101601.97
2022-08-27T19:57:33.797Z,101593.50
2022-08-27T20:00:01.403Z,101597.69
2022-08-27T20:02:29.138Z,101597.06
2022-08-27T20:05:17.002Z,101597.72
2022-08-27T20:07:45.668Z,101599.19
2022-08-27T20:10:13.288Z,101592.38
2022-08-27T20:12:44.399Z,101596.59
2022-08-27T20:15:12.981Z,101595.38
2022-08-27T20:17:41.168Z,101587.31
2022-08-27T20:20:09.954Z,101595.78
2022-08-27T20:22:39.602Z,101600.78
2022-08-27T20:25:09.848Z,101601.84
2022-08-27T20:27:37.932Z,101601.03
2022-08-27T20:30:06.720Z,101599.38
2022-08-27T20:32:35.485Z,101606.84
2022-08-27T20:35:03.377Z,101601.03
2022-08-27T20:37:30.955Z,101610.34
2022-08-27T20:39:58.594Z,101610.19
2022-08-27T20:42:27.532Z,101612.88
2022-08-27T20:44:55.316Z,101609.13
2022-08-27T20:47:26.446Z,101604.59
2022-08-27T20:49:54.012Z,101607.50
2022-08-27T20:52:22.096Z,101612.25
2022-08-27T20:54:49.661Z,101608.97
2022-08-27T20:57:17.228Z,101609.22
2022-08-27T21:00:03.912Z,101618.13
2022-08-27T21:02:31.602Z,101610.06
2022-08-27T21:04:59.290Z,101604.06
2022-08-27T21:07:26.908Z,101612.56
2022-08-27T21:09:57.172Z,101620.22
2022-08-27T21:12:25.632Z,101612.34
2022-08-27T21:14:56.441Z,101613.19
2022-08-27T21:17:24.770Z,101602.84
2022-08-27T21:19:52.615Z,101618.78
2022-08-27T21:22:20.408Z,101617.34
2022-08-27T21:24:48.095Z,101621.69
2022-08-27T21:27:16.161Z,101625.63
2022-08-27T21:29:44.849Z,101619.41
2022-08-27T21:32:14.868Z,101621.31
2022-08-27T21:34:42.694Z,101612.59
2022-08-27T21:37:11.002Z,101620.47
2022-08-27T21:39:39.078Z,101607.84
2022-08-27T21:42:07.399Z,101618.00
2022-08-27T21:44:35.756Z,101610.34
2022-08-27T21:47:03.786Z,101614.69
2022-08-27T21:49:33.673Z,101609.34
2022-08-27T21:52:03.239Z,101615.50
2022-08-27T21:54:32.780Z,101615.13
2022-08-27T21:57:03.015Z,101622.53
2022-08-27T21:59:30.733Z,101626.06
2022-08-27T22:02:00.823Z,101623.16
2022-08-27T22:04:29.813Z,101623.13
2022-08-27T22:07:00.725Z,101622.13
2022-08-27T22:09:28.576Z,101619.63
2022-08-27T22:11:56.897Z,101611.97
2022-08-27T22:14:24.561Z,101628.94
2022-08-27T22:16:52.308Z,101629.97
2022-08-27T22:19:21.349Z,101627.28
2022-08-27T22:21:49.314Z,101631.63
2022-08-27T22:24:18.461Z,101630.16
2022-08-27T22:26:46.038Z,101626.03
2022-08-27T22:29:16.296Z,101636.19
2022-08-27T22:31:44.031Z,101633.06
2022-08-27T22:34:14.918Z,101629.75
2022-08-27T22:36:43.257Z,101626.84
2022-08-27T22:39:10.890Z,101630.38
2022-08-27T22:41:40.630Z,101632.41
2022-08-27T22:44:12.010Z,101632.41
2022-08-27T22:46:39.712Z,101624.78
2022-08-27T22:49:07.318Z,101628.31
2022-08-27T22:51:34.957Z,101629.13
2022-08-27T22:54:02.597Z,101629.97
2022-08-27T22:56:30.202Z,101633.88
2022-08-27T22:58:59.166Z,101637.41
2022-08-27T23:01:26.819Z,101641.94
2022-08-27T23:03:55.027Z,101639.44
2022-08-27T23:06:22.809Z,101638.22
2022-08-27T23:08:50.363Z,101636.38
2022-08-27T23:11:18.281Z,101639.06
2022-08-27T23:13:47.257Z,101643.59
2022-08-27T23:16:16.751Z,101635.94
2022-08-27T23:18:45.608Z,101636.97
2022-08-27T23:21:13.197Z,101642.75
2022-08-27T23:23:40.854Z,101635.09
2022-08-27T23:26:26.308Z,101648.31
2022-08-27T23:28:54.845Z,101638.19
2022-08-27T23:31:23.914Z,101632.59
2022-08-27T23:33:52.073Z,101631.41
2022-08-27T23:36:19.840Z,101634.28
2022-08-27T23:38:47.409Z,101633.03
2022-08-27T23:41:16.273Z,101628.47
2022-08-27T23:43:44.134Z,101625.78
2022-08-27T23:46:12.161Z,101626.19
2022-08-27T23:48:41.156Z,101628.06
2022-08-27T23:51:09.987Z,101623.50
2022-08-27T23:53:38.752Z,101626.19
2022-08-27T23:56:07.072Z,101619.34
2022-08-27T23:58:34.818Z,101617.88
